ORBI/SDA METAR and TAF weather

Enter ICAO airport designator
Station Type Date Time Source
ORBI METAR 2018/12/15 21:00 UTC NOAA

ORBI 152100Z 31005KT CAVOK 09/06 Q1026 NOSIG


Station Type Date Time Source
ORBI Decoded METAR 2018/12/15 21:00 UTC NOAA

Station name not available
Dec 15, 2018 - 04:00 PM EST / 2018.12.15 2100 UTC
Wind: from the NW (310 degrees) at 6 MPH (5 KT):0
Visibility: greater than 7 mile(s):0
Temperature: 48 F (9 C)
Dew Point: 42 F (6 C)
Relative Humidity: 81%
Pressure (altimeter): 30.30 in. Hg (1026 hPa)
ob: ORBI 152100Z 31005KT CAVOK 09/06 Q1026 NOSIG
cycle: 21

Station Type Date Time Source
ORBI TAF 2018/12/15 18:37 UTC NOAA

TAF ORBI 151600Z 1518/1618 30010KT 8000 NSC


Example: see airport list